Archival Weather

Václav Havel Intl Apt

Prague, Czechia (LKPR)

Report from: Monday, May 29, 2023 10:00 AM CEST
Current time: Sunday, July 14, 2024 1:02 PM CEST

Current weather – Weather history – Daily summaries
Weather forecast

Temperature17.0°C (62.6°F)
Dew point3.0°C (37.4°F)
Winds 6 kts (3.1 m/s, 6.9 mph) Vrb
Winds variableWinds variable from North-Northwest (330°) to Northeast (50°)
Clouds Sky clear
Altimeter30.12 in.Hg (1020 mB)
Relative humidity39 %
Density altitude123 ft. (37 m)
Remarks Ceiling and visibility OK
No significant changes expected in the next two hours
Flight conditions Visual Meteorological Conditions
Raw dataLKPR 290800Z 01006KT 330V050 CAVOK 17/03 Q1020 NOSIG
An error has occurred. This application may no longer respond until reloaded. Reload 🗙